sensor_id;sensor_type;location;lat;lon;timestamp;temperature;humidity
12049;DHT22;6085;49.452;8.502;2023-07-13T00:00:06;20.20;99.90
12049;DHT22;6085;49.452;8.502;2023-07-13T00:04:10;20.30;99.90
12049;DHT22;6085;49.452;8.502;2023-07-13T00:08:14;20.20;99.90
12049;DHT22;6085;49.452;8.502;2023-07-13T00:12:24;20.10;99.90
12049;DHT22;6085;49.452;8.502;2023-07-13T00:16:27;19.90;99.90
12049;DHT22;6085;49.452;8.502;2023-07-13T00:20:28;19.80;99.90
12049;DHT22;6085;49.452;8.502;2023-07-13T00:24:32;19.70;99.90
12049;DHT22;6085;49.452;8.502;2023-07-13T00:28:35;19.70;99.90
12049;DHT22;6085;49.452;8.502;2023-07-13T00:32:38;19.60;99.90
12049;DHT22;6085;49.452;8.502;2023-07-13T00:36:40;19.40;99.90
12049;DHT22;6085;49.452;8.502;2023-07-13T00:40:43;19.20;99.90
12049;DHT22;6085;49.452;8.502;2023-07-13T00:45:00;19.10;99.90
12049;DHT22;6085;49.452;8.502;2023-07-13T00:49:05;18.90;99.90
12049;DHT22;6085;49.452;8.502;2023-07-13T00:53:08;18.70;99.90
12049;DHT22;6085;49.452;8.502;2023-07-13T00:57:14;18.50;99.90
12049;DHT22;6085;49.452;8.502;2023-07-13T01:01:16;18.40;99.90
12049;DHT22;6085;49.452;8.502;2023-07-13T01:05:21;18.30;99.90
12049;DHT22;6085;49.452;8.502;2023-07-13T01:09:23;18.20;99.90
12049;DHT22;6085;49.452;8.502;2023-07-13T01:13:26;18.10;99.90
12049;DHT22;6085;49.452;8.502;2023-07-13T01:17:29;18.00;99.90
12049;DHT22;6085;49.452;8.502;2023-07-13T01:21:33;18.00;99.90
12049;DHT22;6085;49.452;8.502;2023-07-13T01:25:35;18.20;99.90
12049;DHT22;6085;49.452;8.502;2023-07-13T01:29:40;18.20;99.90
12049;DHT22;6085;49.452;8.502;2023-07-13T01:33:43;18.20;99.90
12049;DHT22;6085;49.452;8.502;2023-07-13T01:37:47;18.20;99.90
12049;DHT22;6085;49.452;8.502;2023-07-13T01:41:49;18.20;99.90
12049;DHT22;6085;49.452;8.502;2023-07-13T01:45:51;18.20;99.90
12049;DHT22;6085;49.452;8.502;2023-07-13T01:49:53;18.40;99.90
12049;DHT22;6085;49.452;8.502;2023-07-13T01:53:56;18.30;99.90
12049;DHT22;6085;49.452;8.502;2023-07-13T01:57:58;18.30;99.90
12049;DHT22;6085;49.452;8.502;2023-07-13T02:02:00;18.20;99.90
12049;DHT22;6085;49.452;8.502;2023-07-13T02:06:02;18.10;99.90
12049;DHT22;6085;49.452;8.502;2023-07-13T02:10:09;18.20;99.90
12049;DHT22;6085;49.452;8.502;2023-07-13T02:14:11;18.30;99.90
12049;DHT22;6085;49.452;8.502;2023-07-13T02:18:13;18.30;99.90
12049;DHT22;6085;49.452;8.502;2023-07-13T02:22:17;18.20;99.90
12049;DHT22;6085;49.452;8.502;2023-07-13T02:26:20;18.10;99.90
12049;DHT22;6085;49.452;8.502;2023-07-13T02:30:22;17.90;99.90
12049;DHT22;6085;49.452;8.502;2023-07-13T02:34:25;17.80;99.90
12049;DHT22;6085;49.452;8.502;2023-07-13T02:38:27;17.60;99.90
12049;DHT22;6085;49.452;8.502;2023-07-13T02:42:30;17.50;99.90
12049;DHT22;6085;49.452;8.502;2023-07-13T02:46:34;17.40;99.90
12049;DHT22;6085;49.452;8.502;2023-07-13T02:50:36;17.30;99.90
12049;DHT22;6085;49.452;8.502;2023-07-13T02:54:38;17.20;99.90
12049;DHT22;6085;49.452;8.502;2023-07-13T02:58:41;17.20;99.90
12049;DHT22;6085;49.452;8.502;2023-07-13T03:02:43;17.20;99.90
12049;DHT22;6085;49.452;8.502;2023-07-13T03:06:46;17.20;99.90
12049;DHT22;6085;49.452;8.502;2023-07-13T03:10:48;17.20;99.90
12049;DHT22;6085;49.452;8.502;2023-07-13T03:14:51;17.30;99.90
12049;DHT22;6085;49.452;8.502;2023-07-13T03:18:53;17.30;99.90
12049;DHT22;6085;49.452;8.502;2023-07-13T03:22:55;17.20;99.90
12049;DHT22;6085;49.452;8.502;2023-07-13T03:26:57;17.20;99.90
12049;DHT22;6085;49.452;8.502;2023-07-13T03:31:02;17.10;99.90
12049;DHT22;6085;49.452;8.502;2023-07-13T03:35:05;17.00;99.90
12049;DHT22;6085;49.452;8.502;2023-07-13T03:39:09;16.90;99.90
12049;DHT22;6085;49.452;8.502;2023-07-13T03:43:11;16.80;99.90
12049;DHT22;6085;49.452;8.502;2023-07-13T03:47:14;16.70;99.90
12049;DHT22;6085;49.452;8.502;2023-07-13T03:51:17;16.70;99.90
12049;DHT22;6085;49.452;8.502;2023-07-13T03:55:19;16.60;99.90
12049;DHT22;6085;49.452;8.502;2023-07-13T03:59:21;16.60;99.90
12049;DHT22;6085;49.452;8.502;2023-07-13T04:03:24;16.50;99.90
12049;DHT22;6085;49.452;8.502;2023-07-13T04:07:28;16.50;99.90
12049;DHT22;6085;49.452;8.502;2023-07-13T04:11:31;16.60;99.90
12049;DHT22;6085;49.452;8.502;2023-07-13T04:15:33;16.60;99.90
12049;DHT22;6085;49.452;8.502;2023-07-13T04:19:36;16.60;99.90
12049;DHT22;6085;49.452;8.502;2023-07-13T04:23:39;16.60;99.90
12049;DHT22;6085;49.452;8.502;2023-07-13T04:27:41;16.70;99.90
12049;DHT22;6085;49.452;8.502;2023-07-13T04:31:43;16.70;99.90
12049;DHT22;6085;49.452;8.502;2023-07-13T04:35:47;16.80;99.90
12049;DHT22;6085;49.452;8.502;2023-07-13T04:39:49;17.00;99.90
12049;DHT22;6085;49.452;8.502;2023-07-13T04:43:51;17.10;99.90
12049;DHT22;6085;49.452;8.502;2023-07-13T04:47:53;17.50;99.90
12049;DHT22;6085;49.452;8.502;2023-07-13T04:51:57;17.80;99.90
12049;DHT22;6085;49.452;8.502;2023-07-13T04:55:59;18.20;99.90
12049;DHT22;6085;49.452;8.502;2023-07-13T05:00:01;18.20;99.90
12049;DHT22;6085;49.452;8.502;2023-07-13T05:04:07;17.90;99.90
12049;DHT22;6085;49.452;8.502;2023-07-13T05:08:10;17.70;99.90
12049;DHT22;6085;49.452;8.502;2023-07-13T05:12:12;17.70;99.90
12049;DHT22;6085;49.452;8.502;2023-07-13T05:16:14;17.80;99.90
12049;DHT22;6085;49.452;8.502;2023-07-13T05:20:17;18.00;99.90
12049;DHT22;6085;49.452;8.502;2023-07-13T05:24:21;18.10;99.90
12049;DHT22;6085;49.452;8.502;2023-07-13T05:28:24;18.00;99.90
12049;DHT22;6085;49.452;8.502;2023-07-13T05:32:26;18.00;99.90
12049;DHT22;6085;49.452;8.502;2023-07-13T05:36:28;18.00;99.90
12049;DHT22;6085;49.452;8.502;2023-07-13T05:40:32;18.20;99.90
12049;DHT22;6085;49.452;8.502;2023-07-13T05:44:34;18.90;99.90
12049;DHT22;6085;49.452;8.502;2023-07-13T05:48:35;19.90;99.90
12049;DHT22;6085;49.452;8.502;2023-07-13T05:52:38;20.40;99.90
12049;DHT22;6085;49.452;8.502;2023-07-13T05:56:41;21.20;99.90
12049;DHT22;6085;49.452;8.502;2023-07-13T06:00:43;22.70;99.90
12049;DHT22;6085;49.452;8.502;2023-07-13T06:04:45;23.30;99.90
12049;DHT22;6085;49.452;8.502;2023-07-13T06:08:47;22.40;99.90
12049;DHT22;6085;49.452;8.502;2023-07-13T06:12:50;21.60;99.90
12049;DHT22;6085;49.452;8.502;2023-07-13T06:16:52;21.90;99.90
12049;DHT22;6085;49.452;8.502;2023-07-13T06:20:54;22.90;99.90
12049;DHT22;6085;49.452;8.502;2023-07-13T06:24:56;24.00;99.90
12049;DHT22;6085;49.452;8.502;2023-07-13T06:28:59;24.80;99.90
12049;DHT22;6085;49.452;8.502;2023-07-13T06:33:01;25.00;99.90
12049;DHT22;6085;49.452;8.502;2023-07-13T06:37:03;25.30;99.90
12049;DHT22;6085;49.452;8.502;2023-07-13T06:41:06;25.40;99.90
12049;DHT22;6085;49.452;8.502;2023-07-13T06:45:10;25.60;99.90
12049;DHT22;6085;49.452;8.502;2023-07-13T06:49:12;25.70;99.90
12049;DHT22;6085;49.452;8.502;2023-07-13T06:53:14;26.00;99.90
12049;DHT22;6085;49.452;8.502;2023-07-13T06:57:16;26.40;99.20
12049;DHT22;6085;49.452;8.502;2023-07-13T07:01:19;27.60;97.10
12049;DHT22;6085;49.452;8.502;2023-07-13T07:05:21;29.00;95.20
12049;DHT22;6085;49.452;8.502;2023-07-13T07:09:23;31.00;91.10
12049;DHT22;6085;49.452;8.502;2023-07-13T07:13:25;32.00;85.90
12049;DHT22;6085;49.452;8.502;2023-07-13T07:17:30;31.90;81.30
12049;DHT22;6085;49.452;8.502;2023-07-13T07:21:32;32.80;77.80
12049;DHT22;6085;49.452;8.502;2023-07-13T07:25:34;34.10;72.40
12049;DHT22;6085;49.452;8.502;2023-07-13T07:29:42;34.50;68.20
12049;DHT22;6085;49.452;8.502;2023-07-13T07:33:45;34.20;65.60
12049;DHT22;6085;49.452;8.502;2023-07-13T07:37:47;34.80;64.40
12049;DHT22;6085;49.452;8.502;2023-07-13T07:41:49;35.50;61.70
12049;DHT22;6085;49.452;8.502;2023-07-13T07:45:52;35.30;59.70
12049;DHT22;6085;49.452;8.502;2023-07-13T07:49:55;35.80;57.90
12049;DHT22;6085;49.452;8.502;2023-07-13T07:53:57;34.50;57.40
12049;DHT22;6085;49.452;8.502;2023-07-13T07:58:00;34.10;55.40
12049;DHT22;6085;49.452;8.502;2023-07-13T08:02:02;33.80;55.90
12049;DHT22;6085;49.452;8.502;2023-07-13T08:06:05;33.10;55.90
12049;DHT22;6085;49.452;8.502;2023-07-13T08:10:08;33.60;55.50
12049;DHT22;6085;49.452;8.502;2023-07-13T08:14:10;34.40;54.00
12049;DHT22;6085;49.452;8.502;2023-07-13T08:18:12;35.30;53.00
12049;DHT22;6085;49.452;8.502;2023-07-13T08:22:15;35.70;51.00
12049;DHT22;6085;49.452;8.502;2023-07-13T08:26:17;34.90;52.10
12049;DHT22;6085;49.452;8.502;2023-07-13T08:30:19;33.70;53.00
12049;DHT22;6085;49.452;8.502;2023-07-13T08:34:21;33.40;54.70
12049;DHT22;6085;49.452;8.502;2023-07-13T08:38:24;34.40;52.70
12049;DHT22;6085;49.452;8.502;2023-07-13T08:42:33;34.70;51.10
12049;DHT22;6085;49.452;8.502;2023-07-13T08:46:40;34.90;50.10
12049;DHT22;6085;49.452;8.502;2023-07-13T08:50:51;35.50;50.00
12049;DHT22;6085;49.452;8.502;2023-07-13T08:54:56;36.10;48.80
12049;DHT22;6085;49.452;8.502;2023-07-13T08:59:04;35.30;49.80
12049;DHT22;6085;49.452;8.502;2023-07-13T09:03:18;33.90;51.30
12049;DHT22;6085;49.452;8.502;2023-07-13T09:07:29;33.50;52.00
12049;DHT22;6085;49.452;8.502;2023-07-13T09:11:45;33.80;51.70
12049;DHT22;6085;49.452;8.502;2023-07-13T09:15:49;33.60;52.30
12049;DHT22;6085;49.452;8.502;2023-07-13T09:19:57;33.70;52.00
12049;DHT22;6085;49.452;8.502;2023-07-13T09:24:06;32.90;52.30
12049;DHT22;6085;49.452;8.502;2023-07-13T09:28:22;33.00;52.20
12049;DHT22;6085;49.452;8.502;2023-07-13T09:32:26;32.60;54.30
12049;DHT22;6085;49.452;8.502;2023-07-13T09:36:30;31.40;56.30
12049;DHT22;6085;49.452;8.502;2023-07-13T09:40:43;31.00;56.70
12049;DHT22;6085;49.452;8.502;2023-07-13T09:44:55;29.70;59.20
12049;DHT22;6085;49.452;8.502;2023-07-13T09:48:57;29.00;60.50
12049;DHT22;6085;49.452;8.502;2023-07-13T09:53:01;30.00;59.50
12049;DHT22;6085;49.452;8.502;2023-07-13T09:57:12;31.00;57.80
12049;DHT22;6085;49.452;8.502;2023-07-13T10:01:17;32.70;54.90
12049;DHT22;6085;49.452;8.502;2023-07-13T10:05:40;31.30;56.30
12049;DHT22;6085;49.452;8.502;2023-07-13T10:09:42;32.40;54.00
12049;DHT22;6085;49.452;8.502;2023-07-13T10:13:47;33.60;51.80
12049;DHT22;6085;49.452;8.502;2023-07-13T10:17:54;34.20;50.60
12049;DHT22;6085;49.452;8.502;2023-07-13T10:22:00;31.20;54.00
12049;DHT22;6085;49.452;8.502;2023-07-13T10:26:05;29.10;58.20
12049;DHT22;6085;49.452;8.502;2023-07-13T10:30:14;27.60;59.90
12049;DHT22;6085;49.452;8.502;2023-07-13T10:34:20;26.70;61.30
12049;DHT22;6085;49.452;8.502;2023-07-13T10:38:24;26.50;62.40
12049;DHT22;6085;49.452;8.502;2023-07-13T10:42:30;26.90;62.40
12049;DHT22;6085;49.452;8.502;2023-07-13T10:46:34;27.10;59.20
12049;DHT22;6085;49.452;8.502;2023-07-13T10:50:38;27.00;57.90
12049;DHT22;6085;49.452;8.502;2023-07-13T10:54:42;26.60;59.00
12049;DHT22;6085;49.452;8.502;2023-07-13T10:58:44;27.00;58.90
12049;DHT22;6085;49.452;8.502;2023-07-13T11:02:56;29.50;55.00
12049;DHT22;6085;49.452;8.502;2023-07-13T11:07:11;29.10;54.10
12049;DHT22;6085;49.452;8.502;2023-07-13T11:11:35;28.50;54.60
12049;DHT22;6085;49.452;8.502;2023-07-13T11:15:45;27.90;54.50
12049;DHT22;6085;49.452;8.502;2023-07-13T11:19:51;27.20;56.20
12049;DHT22;6085;49.452;8.502;2023-07-13T11:24:02;28.80;53.70
12049;DHT22;6085;49.452;8.502;2023-07-13T11:28:15;29.10;53.70
12049;DHT22;6085;49.452;8.502;2023-07-13T11:32:23;30.80;52.00
12049;DHT22;6085;49.452;8.502;2023-07-13T11:36:39;31.60;51.20
12049;DHT22;6085;49.452;8.502;2023-07-13T11:40:47;30.30;52.60
12049;DHT22;6085;49.452;8.502;2023-07-13T11:44:50;28.90;54.60
12049;DHT22;6085;49.452;8.502;2023-07-13T11:48:53;27.90;55.40
12049;DHT22;6085;49.452;8.502;2023-07-13T11:52:57;27.10;56.10
12049;DHT22;6085;49.452;8.502;2023-07-13T11:57:11;26.70;56.00
12049;DHT22;6085;49.452;8.502;2023-07-13T12:01:21;27.90;55.20
12049;DHT22;6085;49.452;8.502;2023-07-13T12:05:23;28.60;54.10
12049;DHT22;6085;49.452;8.502;2023-07-13T12:09:27;29.00;52.50
12049;DHT22;6085;49.452;8.502;2023-07-13T12:13:35;29.10;51.90
12049;DHT22;6085;49.452;8.502;2023-07-13T12:17:38;28.70;52.40
12049;DHT22;6085;49.452;8.502;2023-07-13T12:21:41;28.30;52.20
12049;DHT22;6085;49.452;8.502;2023-07-13T12:25:44;28.90;51.50
12049;DHT22;6085;49.452;8.502;2023-07-13T12:29:52;29.20;51.00
12049;DHT22;6085;49.452;8.502;2023-07-13T12:34:00;28.40;53.60
12049;DHT22;6085;49.452;8.502;2023-07-13T12:38:02;28.10;54.90
12049;DHT22;6085;49.452;8.502;2023-07-13T12:42:18;27.90;56.20
12049;DHT22;6085;49.452;8.502;2023-07-13T12:46:24;28.10;56.10
12049;DHT22;6085;49.452;8.502;2023-07-13T12:50:30;28.00;55.60
12049;DHT22;6085;49.452;8.502;2023-07-13T12:54:39;27.70;56.90
12049;DHT22;6085;49.452;8.502;2023-07-13T12:58:42;27.80;56.40
12049;DHT22;6085;49.452;8.502;2023-07-13T13:02:49;28.00;54.90
12049;DHT22;6085;49.452;8.502;2023-07-13T13:07:01;28.10;55.20
12049;DHT22;6085;49.452;8.502;2023-07-13T13:11:03;28.30;55.60
12049;DHT22;6085;49.452;8.502;2023-07-13T13:15:07;28.30;54.70
12049;DHT22;6085;49.452;8.502;2023-07-13T13:19:14;28.00;54.70
12049;DHT22;6085;49.452;8.502;2023-07-13T13:23:18;27.90;54.70
12049;DHT22;6085;49.452;8.502;2023-07-13T13:27:22;27.60;55.90
12049;DHT22;6085;49.452;8.502;2023-07-13T13:31:24;27.30;56.70
12049;DHT22;6085;49.452;8.502;2023-07-13T13:35:28;27.30;57.90
12049;DHT22;6085;49.452;8.502;2023-07-13T13:39:32;27.30;57.70
12049;DHT22;6085;49.452;8.502;2023-07-13T13:43:35;27.20;56.90
12049;DHT22;6085;49.452;8.502;2023-07-13T13:47:37;27.10;57.40
12049;DHT22;6085;49.452;8.502;2023-07-13T13:51:40;27.30;57.30
12049;DHT22;6085;49.452;8.502;2023-07-13T13:55:42;27.50;57.30
12049;DHT22;6085;49.452;8.502;2023-07-13T13:59:44;27.70;55.80
12049;DHT22;6085;49.452;8.502;2023-07-13T14:03:46;27.80;55.70
12049;DHT22;6085;49.452;8.502;2023-07-13T14:07:50;27.90;56.00
12049;DHT22;6085;49.452;8.502;2023-07-13T14:11:53;27.70;56.40
12049;DHT22;6085;49.452;8.502;2023-07-13T14:15:55;27.50;57.70
12049;DHT22;6085;49.452;8.502;2023-07-13T14:19:57;27.40;58.30
12049;DHT22;6085;49.452;8.502;2023-07-13T14:24:02;27.60;58.30
12049;DHT22;6085;49.452;8.502;2023-07-13T14:28:21;27.60;58.40
12049;DHT22;6085;49.452;8.502;2023-07-13T14:32:26;27.30;58.90
12049;DHT22;6085;49.452;8.502;2023-07-13T14:36:33;27.00;58.50
12049;DHT22;6085;49.452;8.502;2023-07-13T14:40:37;26.90;58.90
12049;DHT22;6085;49.452;8.502;2023-07-13T14:44:40;27.00;58.80
12049;DHT22;6085;49.452;8.502;2023-07-13T14:48:42;26.90;59.00
12049;DHT22;6085;49.452;8.502;2023-07-13T14:52:46;26.90;59.10
12049;DHT22;6085;49.452;8.502;2023-07-13T14:56:49;26.90;59.10
12049;DHT22;6085;49.452;8.502;2023-07-13T15:00:52;26.90;59.00
12049;DHT22;6085;49.452;8.502;2023-07-13T15:04:56;27.00;58.40
12049;DHT22;6085;49.452;8.502;2023-07-13T15:08:58;27.00;58.70
12049;DHT22;6085;49.452;8.502;2023-07-13T15:13:13;26.90;58.30
12049;DHT22;6085;49.452;8.502;2023-07-13T15:17:24;26.70;58.80
12049;DHT22;6085;49.452;8.502;2023-07-13T15:21:28;26.60;59.40
12049;DHT22;6085;49.452;8.502;2023-07-13T15:25:35;26.60;57.80
12049;DHT22;6085;49.452;8.502;2023-07-13T15:29:38;26.30;58.60
12049;DHT22;6085;49.452;8.502;2023-07-13T15:33:43;26.00;59.10
12049;DHT22;6085;49.452;8.502;2023-07-13T15:37:46;25.80;59.70
12049;DHT22;6085;49.452;8.502;2023-07-13T15:41:48;26.00;59.20
12049;DHT22;6085;49.452;8.502;2023-07-13T15:45:52;26.40;59.00
12049;DHT22;6085;49.452;8.502;2023-07-13T15:49:55;26.90;58.30
12049;DHT22;6085;49.452;8.502;2023-07-13T15:54:01;26.80;58.30
12049;DHT22;6085;49.452;8.502;2023-07-13T15:58:11;26.40;58.60
12049;DHT22;6085;49.452;8.502;2023-07-13T16:02:18;25.90;59.90
12049;DHT22;6085;49.452;8.502;2023-07-13T16:06:23;25.70;61.50
12049;DHT22;6085;49.452;8.502;2023-07-13T16:10:30;25.70;60.60
12049;DHT22;6085;49.452;8.502;2023-07-13T16:14:33;25.80;60.60
12049;DHT22;6085;49.452;8.502;2023-07-13T16:18:36;25.80;59.80
12049;DHT22;6085;49.452;8.502;2023-07-13T16:22:38;25.70;60.10
12049;DHT22;6085;49.452;8.502;2023-07-13T16:26:41;25.60;60.80
12049;DHT22;6085;49.452;8.502;2023-07-13T16:30:44;25.50;61.30
12049;DHT22;6085;49.452;8.502;2023-07-13T16:34:49;25.30;62.20
12049;DHT22;6085;49.452;8.502;2023-07-13T16:38:51;25.10;62.90
12049;DHT22;6085;49.452;8.502;2023-07-13T16:42:55;25.00;62.90
12049;DHT22;6085;49.452;8.502;2023-07-13T16:46:57;24.90;63.70
12049;DHT22;6085;49.452;8.502;2023-07-13T16:51:02;24.90;64.00
12049;DHT22;6085;49.452;8.502;2023-07-13T16:55:08;24.90;64.50
12049;DHT22;6085;49.452;8.502;2023-07-13T16:59:13;24.90;64.20
12049;DHT22;6085;49.452;8.502;2023-07-13T17:03:15;24.80;63.90
12049;DHT22;6085;49.452;8.502;2023-07-13T17:07:20;24.70;63.80
12049;DHT22;6085;49.452;8.502;2023-07-13T17:11:24;24.50;63.90
12049;DHT22;6085;49.452;8.502;2023-07-13T17:15:27;24.40;65.20
12049;DHT22;6085;49.452;8.502;2023-07-13T17:19:30;24.30;64.90
12049;DHT22;6085;49.452;8.502;2023-07-13T17:23:36;24.30;65.00
12049;DHT22;6085;49.452;8.502;2023-07-13T17:27:40;24.30;65.10
12049;DHT22;6085;49.452;8.502;2023-07-13T17:31:42;24.60;62.50
12049;DHT22;6085;49.452;8.502;2023-07-13T17:35:45;25.10;60.90
12049;DHT22;6085;49.452;8.502;2023-07-13T17:39:48;25.40;60.80
12049;DHT22;6085;49.452;8.502;2023-07-13T17:43:50;25.30;61.10
12049;DHT22;6085;49.452;8.502;2023-07-13T17:47:53;25.20;60.90
12049;DHT22;6085;49.452;8.502;2023-07-13T17:51:55;25.00;61.20
12049;DHT22;6085;49.452;8.502;2023-07-13T17:55:59;24.70;62.70
12049;DHT22;6085;49.452;8.502;2023-07-13T18:00:03;24.60;63.10
12049;DHT22;6085;49.452;8.502;2023-07-13T18:04:27;24.70;63.10
12049;DHT22;6085;49.452;8.502;2023-07-13T18:08:31;24.60;63.40
12049;DHT22;6085;49.452;8.502;2023-07-13T18:12:34;24.60;63.90
12049;DHT22;6085;49.452;8.502;2023-07-13T18:16:38;24.50;64.10
12049;DHT22;6085;49.452;8.502;2023-07-13T18:20:41;24.40;63.90
12049;DHT22;6085;49.452;8.502;2023-07-13T18:24:44;24.40;64.00
12049;DHT22;6085;49.452;8.502;2023-07-13T18:28:49;24.10;64.50
12049;DHT22;6085;49.452;8.502;2023-07-13T18:32:52;23.90;64.90
12049;DHT22;6085;49.452;8.502;2023-07-13T18:36:58;23.70;65.60
12049;DHT22;6085;49.452;8.502;2023-07-13T18:41:01;23.50;66.30
12049;DHT22;6085;49.452;8.502;2023-07-13T18:45:09;23.30;66.80
12049;DHT22;6085;49.452;8.502;2023-07-13T18:49:14;23.20;67.00
12049;DHT22;6085;49.452;8.502;2023-07-13T18:53:18;23.00;67.50
12049;DHT22;6085;49.452;8.502;2023-07-13T18:57:20;22.90;67.90
12049;DHT22;6085;49.452;8.502;2023-07-13T19:01:30;22.80;68.90
12049;DHT22;6085;49.452;8.502;2023-07-13T19:05:33;22.70;68.70
12049;DHT22;6085;49.452;8.502;2023-07-13T19:09:35;22.70;69.80
12049;DHT22;6085;49.452;8.502;2023-07-13T19:13:38;22.50;70.20
12049;DHT22;6085;49.452;8.502;2023-07-13T19:17:43;22.30;71.00
12049;DHT22;6085;49.452;8.502;2023-07-13T19:21:47;22.10;72.50
12049;DHT22;6085;49.452;8.502;2023-07-13T19:25:50;22.00;73.90
12049;DHT22;6085;49.452;8.502;2023-07-13T19:29:52;21.80;74.20
12049;DHT22;6085;49.452;8.502;2023-07-13T19:33:55;21.60;74.60
12049;DHT22;6085;49.452;8.502;2023-07-13T19:37:58;21.40;75.10
12049;DHT22;6085;49.452;8.502;2023-07-13T19:42:04;21.40;76.20
12049;DHT22;6085;49.452;8.502;2023-07-13T19:46:14;21.20;77.50
12049;DHT22;6085;49.452;8.502;2023-07-13T19:50:20;21.10;78.80
12049;DHT22;6085;49.452;8.502;2023-07-13T19:54:23;20.90;79.40
12049;DHT22;6085;49.452;8.502;2023-07-13T19:58:27;21.00;79.00
12049;DHT22;6085;49.452;8.502;2023-07-13T20:02:28;21.00;79.10
12049;DHT22;6085;49.452;8.502;2023-07-13T20:06:32;21.00;79.20
12049;DHT22;6085;49.452;8.502;2023-07-13T20:10:35;21.00;79.10
12049;DHT22;6085;49.452;8.502;2023-07-13T20:14:36;21.00;79.60
12049;DHT22;6085;49.452;8.502;2023-07-13T20:18:38;21.00;80.20
12049;DHT22;6085;49.452;8.502;2023-07-13T20:22:42;20.90;81.00
12049;DHT22;6085;49.452;8.502;2023-07-13T20:26:44;20.90;81.50
12049;DHT22;6085;49.452;8.502;2023-07-13T20:30:48;20.90;82.20
12049;DHT22;6085;49.452;8.502;2023-07-13T20:34:50;20.80;82.90
12049;DHT22;6085;49.452;8.502;2023-07-13T20:38:53;20.80;84.20
12049;DHT22;6085;49.452;8.502;2023-07-13T20:42:57;20.70;85.40
12049;DHT22;6085;49.452;8.502;2023-07-13T20:46:59;20.70;85.50
12049;DHT22;6085;49.452;8.502;2023-07-13T20:51:02;20.80;85.80
12049;DHT22;6085;49.452;8.502;2023-07-13T20:55:12;20.80;86.20
12049;DHT22;6085;49.452;8.502;2023-07-13T20:59:15;20.80;86.60
12049;DHT22;6085;49.452;8.502;2023-07-13T21:03:20;20.80;88.70
12049;DHT22;6085;49.452;8.502;2023-07-13T21:07:23;20.60;90.00
12049;DHT22;6085;49.452;8.502;2023-07-13T21:11:27;20.50;90.80
12049;DHT22;6085;49.452;8.502;2023-07-13T21:15:31;20.30;91.20
12049;DHT22;6085;49.452;8.502;2023-07-13T21:19:33;20.30;91.20
12049;DHT22;6085;49.452;8.502;2023-07-13T21:23:36;20.30;91.80
12049;DHT22;6085;49.452;8.502;2023-07-13T21:27:40;20.30;92.20
12049;DHT22;6085;49.452;8.502;2023-07-13T21:31:42;20.30;92.70
12049;DHT22;6085;49.452;8.502;2023-07-13T21:35:44;20.30;92.90
12049;DHT22;6085;49.452;8.502;2023-07-13T21:39:49;20.40;93.00
12049;DHT22;6085;49.452;8.502;2023-07-13T21:43:54;20.40;93.30
12049;DHT22;6085;49.452;8.502;2023-07-13T21:47:56;20.40;93.20
12049;DHT22;6085;49.452;8.502;2023-07-13T21:51:57;20.50;92.60
12049;DHT22;6085;49.452;8.502;2023-07-13T21:56:01;20.60;92.10
12049;DHT22;6085;49.452;8.502;2023-07-13T22:00:14;20.70;91.90
12049;DHT22;6085;49.452;8.502;2023-07-13T22:04:21;20.70;91.90
12049;DHT22;6085;49.452;8.502;2023-07-13T22:08:26;20.70;91.90
12049;DHT22;6085;49.452;8.502;2023-07-13T22:12:30;20.70;92.20
12049;DHT22;6085;49.452;8.502;2023-07-13T22:16:34;20.70;92.30
12049;DHT22;6085;49.452;8.502;2023-07-13T22:20:36;20.60;92.60
12049;DHT22;6085;49.452;8.502;2023-07-13T22:24:38;20.60;92.70
12049;DHT22;6085;49.452;8.502;2023-07-13T22:28:40;20.50;93.10
12049;DHT22;6085;49.452;8.502;2023-07-13T22:32:44;20.40;93.50
12049;DHT22;6085;49.452;8.502;2023-07-13T22:36:46;20.30;94.00
12049;DHT22;6085;49.452;8.502;2023-07-13T22:40:49;20.30;94.40
12049;DHT22;6085;49.452;8.502;2023-07-13T22:44:52;20.30;94.60
12049;DHT22;6085;49.452;8.502;2023-07-13T22:48:58;20.30;95.00
12049;DHT22;6085;49.452;8.502;2023-07-13T22:53:01;20.20;96.40
12049;DHT22;6085;49.452;8.502;2023-07-13T22:57:03;20.20;97.30
12049;DHT22;6085;49.452;8.502;2023-07-13T23:01:09;20.10;98.20
12049;DHT22;6085;49.452;8.502;2023-07-13T23:05:17;20.00;99.70
12049;DHT22;6085;49.452;8.502;2023-07-13T23:09:20;19.80;99.90
12049;DHT22;6085;49.452;8.502;2023-07-13T23:13:22;19.70;99.90
12049;DHT22;6085;49.452;8.502;2023-07-13T23:17:25;19.60;99.90
12049;DHT22;6085;49.452;8.502;2023-07-13T23:21:29;19.50;99.90
12049;DHT22;6085;49.452;8.502;2023-07-13T23:25:31;19.40;99.90
12049;DHT22;6085;49.452;8.502;2023-07-13T23:29:34;19.30;99.90
12049;DHT22;6085;49.452;8.502;2023-07-13T23:33:36;19.30;99.90
12049;DHT22;6085;49.452;8.502;2023-07-13T23:37:40;19.40;99.90
12049;DHT22;6085;49.452;8.502;2023-07-13T23:41:43;19.40;99.90
12049;DHT22;6085;49.452;8.502;2023-07-13T23:45:46;19.40;99.90
12049;DHT22;6085;49.452;8.502;2023-07-13T23:54:47;19.10;99.90
12049;DHT22;6085;49.452;8.502;2023-07-13T23:58:49;18.90;99.90
